Time;durP1;ratioP1;P1;durP2;ratioP2;P2;SDS_P1;SDS_P2;PMS_P1;PMS_P2;Temp;Humidity;BMP_temperature;BMP_pressure;BME280_temperature;BME280_humidity;BME280_pressure;Samples;Min_cycle;Max_cycle;Signal;HPM_P1;HPM_P2
2022/07/14 00:00:01;;;;;;;1.80;1.70;;;;;;;19.89;67.05;99726.41;5115320;28;20210;-67
2022/07/14 00:02:28;;;;;;;1.60;1.50;;;;;;;19.70;68.05;99728.47;5115348;28;20235;-66
2022/07/14 00:04:56;;;;;;;1.70;1.60;;;;;;;19.58;69.25;99726.63;5115354;28;20203;-66
2022/07/14 00:07:23;;;;;;;1.93;1.50;;;;;;;19.56;69.33;99730.25;5115109;27;20204;-66
2022/07/14 00:09:50;;;;;;;1.90;1.90;;;;;;;19.40;70.03;99719.97;5115241;28;20202;-66
2022/07/14 00:12:17;;;;;;;2.27;2.17;;;;;;;19.39;69.92;99733.84;5114883;28;20219;-67
2022/07/14 00:14:44;;;;;;;1.80;1.70;;;;;;;19.29;69.78;99724.94;5115199;28;20582;-67
2022/07/14 00:17:11;;;;;;;1.87;1.47;;;;;;;19.36;69.73;99740.06;5114886;28;20206;-66
2022/07/14 00:19:37;;;;;;;2.57;1.67;;;;;;;19.37;69.70;99735.72;5115797;28;20213;-66
2022/07/14 00:22:06;;;;;;;1.33;1.33;;;;;;;19.37;69.51;99735.72;5115121;28;20199;-66
2022/07/14 00:24:32;;;;;;;1.20;1.20;;;;;;;19.33;69.25;99734.22;5115185;28;20556;-66
2022/07/14 00:26:59;;;;;;;1.40;1.40;;;;;;;19.29;68.81;99738.75;5114941;28;20299;-67
2022/07/14 00:29:26;;;;;;;1.80;1.80;;;;;;;19.32;68.80;99740.38;5114706;28;20741;-66
2022/07/14 00:31:53;;;;;;;1.40;1.40;;;;;;;19.32;68.83;99735.16;5114687;28;20226;-66
2022/07/14 00:34:20;;;;;;;3.10;1.30;;;;;;;19.30;69.08;99724.84;5113805;28;20226;-66
2022/07/14 00:36:46;;;;;;;2.53;1.50;;;;;;;19.30;69.19;99729.22;5114608;28;20203;-66
2022/07/14 00:39:14;;;;;;;1.27;1.27;;;;;;;19.22;68.41;99715.84;5114657;28;20202;-67
2022/07/14 00:41:41;;;;;;;1.30;1.30;;;;;;;19.29;68.61;99728.38;5114646;28;20666;-66
2022/07/14 00:44:08;;;;;;;1.47;1.47;;;;;;;19.31;68.16;99725.69;5114625;28;20203;-66
2022/07/14 00:46:38;;;;;;;1.57;1.57;;;;;;;19.32;68.38;99725.59;5114482;28;20209;-66
2022/07/14 00:49:05;;;;;;;1.57;1.47;;;;;;;19.36;67.71;99729.66;5114324;28;20326;-66
2022/07/14 00:51:31;;;;;;;1.30;1.20;;;;;;;19.40;67.94;99730.34;5127278;27;20669;-66
2022/07/14 00:53:59;;;;;;;1.20;1.20;;;;;;;19.44;67.46;99731.00;5135048;27;20202;-67
2022/07/14 00:56:27;;;;;;;1.53;1.53;;;;;;;19.45;67.26;99732.69;5134739;27;20214;-66
2022/07/14 00:58:54;;;;;;;1.23;1.23;;;;;;;19.50;67.20;99731.47;5134835;27;20210;-66
2022/07/14 01:01:21;;;;;;;1.40;1.40;;;;;;;19.53;66.87;99731.28;5134708;27;20209;-66
2022/07/14 01:03:48;;;;;;;1.43;1.43;;;;;;;19.55;67.28;99724.22;5134532;27;20203;-67
2022/07/14 01:06:15;;;;;;;1.20;1.20;;;;;;;19.57;66.78;99726.72;5134877;27;20205;-66
2022/07/14 01:08:42;;;;;;;1.40;1.40;;;;;;;19.49;66.85;99719.38;5134463;27;20260;-66
2022/07/14 01:11:09;;;;;;;1.37;1.27;;;;;;;19.55;66.45;99721.59;5134611;27;20222;-66
2022/07/14 01:13:38;;;;;;;1.30;1.30;;;;;;;19.57;66.33;99717.16;5134423;27;20202;-65
2022/07/14 01:16:05;;;;;;;1.23;1.23;;;;;;;19.58;65.82;99724.00;5134554;27;20232;-66
2022/07/14 01:18:33;;;;;;;1.73;1.63;;;;;;;19.63;65.88;99723.75;5134736;27;20270;-66
2022/07/14 01:20:59;;;;;;;1.03;1.03;;;;;;;19.69;65.97;99721.59;5134378;27;20279;-66
2022/07/14 01:23:28;;;;;;;1.30;1.30;;;;;;;19.74;65.69;99716.94;5134241;27;20206;-66
2022/07/14 01:25:55;;;;;;;1.60;1.53;;;;;;;19.74;65.52;99710.91;5134066;27;20210;-66
2022/07/14 01:28:21;;;;;;;1.17;1.17;;;;;;;19.70;65.62;99725.88;5134139;27;20210;-66
2022/07/14 01:30:48;;;;;;;1.30;1.30;;;;;;;19.66;65.88;99721.78;5133999;27;20209;-66
2022/07/14 01:33:15;;;;;;;1.63;1.53;;;;;;;19.62;65.86;99722.91;5134203;27;20696;-67
2022/07/14 01:35:42;;;;;;;1.57;1.57;;;;;;;19.57;66.25;99719.75;5134061;27;20217;-65
2022/07/14 01:38:09;;;;;;;1.57;1.57;;;;;;;19.59;66.06;99719.66;5134337;27;20585;-66
2022/07/14 01:40:37;;;;;;;1.30;1.30;;;;;;;19.49;65.96;99709.00;5133916;27;20214;-66
2022/07/14 01:43:04;;;;;;;1.80;1.37;;;;;;;19.57;65.78;99732.78;5133772;27;20206;-66
2022/07/14 01:45:32;;;;;;;1.57;1.57;;;;;;;19.59;66.03;99732.66;5134090;27;20202;-67
2022/07/14 01:47:59;;;;;;;1.80;1.80;;;;;;;19.54;66.01;99722.56;5133484;27;20606;-66
2022/07/14 01:50:26;;;;;;;1.97;1.87;;;;;;;19.50;66.57;99715.88;5133735;27;20211;-66
2022/07/14 01:52:53;;;;;;;1.40;1.40;;;;;;;19.52;66.49;99715.75;5133880;27;20225;-65
2022/07/14 01:55:20;;;;;;;1.53;1.53;;;;;;;19.46;66.24;99724.78;5133642;27;20260;-66
2022/07/14 01:57:48;;;;;;;1.97;1.53;;;;;;;19.44;66.23;99728.41;5122718;27;20199;-67
2022/07/14 02:00:15;;;;;;;1.77;1.67;;;;;;;19.40;66.16;99735.56;5113148;28;20678;-66
2022/07/14 02:02:42;;;;;;;1.60;1.60;;;;;;;19.41;66.26;99724.25;5113092;28;20203;-66
2022/07/14 02:05:10;;;;;;;1.60;1.60;;;;;;;19.37;66.36;99725.31;5112847;28;20671;-66
2022/07/14 02:07:37;;;;;;;1.53;1.53;;;;;;;19.43;66.41;99729.31;5121833;27;20742;-66
2022/07/14 02:12:51;;;;;;;1.83;1.73;;;;;;;19.44;65.89;99736.22;5133359;27;20731;-66
2022/07/14 02:15:17;;;;;;;1.93;1.83;;;;;;;19.45;65.93;99733.50;5133179;27;20289;-66
2022/07/14 02:17:44;;;;;;;2.17;1.80;;;;;;;19.43;65.83;99732.78;5133246;27;20201;-66
2022/07/14 02:20:12;;;;;;;3.17;2.17;;;;;;;19.41;65.92;99737.25;5133322;27;20587;-66
2022/07/14 02:22:39;;;;;;;1.77;1.70;;;;;;;19.43;66.30;99739.72;5133394;27;20206;-67
2022/07/14 02:25:07;;;;;;;1.60;1.50;;;;;;;19.39;66.27;99736.44;5133145;27;20210;-66
2022/07/14 02:27:34;;;;;;;2.10;2.00;;;;;;;19.36;66.37;99734.03;5133075;27;20209;-66
2022/07/14 02:30:02;;;;;;;1.53;1.50;;;;;;;19.34;65.89;99738.50;5124977;27;20195;-66
2022/07/14 02:32:31;;;;;;;1.70;1.60;;;;;;;19.37;65.58;99736.56;5112538;28;20237;-66
2022/07/14 02:34:57;;;;;;;1.97;1.97;;;;;;;19.43;65.89;99737.97;5112653;28;20204;-66
2022/07/14 02:37:24;;;;;;;1.90;1.80;;;;;;;19.45;65.34;99743.91;5112495;28;20582;-66
2022/07/14 02:39:51;;;;;;;1.50;1.50;;;;;;;19.51;65.07;99747.91;5112537;28;20221;-66
2022/07/14 02:42:18;;;;;;;1.70;1.70;;;;;;;19.50;64.96;99738.44;5112293;28;20203;-66
2022/07/14 02:44:45;;;;;;;1.90;1.73;;;;;;;19.56;65.22;99745.84;5112325;28;20210;-66
2022/07/14 02:47:13;;;;;;;1.77;1.67;;;;;;;19.57;65.28;99750.97;5112665;28;20204;-66
2022/07/14 02:49:40;;;;;;;1.57;1.40;;;;;;;19.60;65.11;99753.38;5112424;28;20351;-67
2022/07/14 02:52:07;;;;;;;2.00;1.83;;;;;;;19.64;65.34;99754.88;5112431;28;20218;-66
2022/07/14 02:54:34;;;;;;;1.53;1.53;;;;;;;19.66;65.30;99752.16;5112104;28;20214;-66
2022/07/14 02:57:01;;;;;;;1.93;1.83;;;;;;;19.70;65.23;99751.91;5111858;28;20213;-66
2022/07/14 02:59:28;;;;;;;1.80;1.73;;;;;;;19.67;64.76;99746.03;5112097;28;20609;-66
2022/07/14 03:01:54;;;;;;;4.30;2.13;;;;;;;19.75;65.21;99754.19;5112193;28;20235;-66
2022/07/14 03:04:23;;;;;;;1.37;1.37;;;;;;;19.74;64.36;99757.75;5112406;28;20221;-65
2022/07/14 03:06:49;;;;;;;1.60;1.53;;;;;;;19.76;64.84;99753.28;5112399;28;20198;-67
2022/07/14 03:09:17;;;;;;;1.50;1.40;;;;;;;19.75;64.34;99760.22;5112170;28;20571;-66
2022/07/14 03:11:44;;;;;;;2.37;2.27;;;;;;;19.68;64.13;99747.69;5111910;28;20321;-66
2022/07/14 03:14:11;;;;;;;1.70;1.60;;;;;;;19.77;64.00;99765.34;5112295;28;20203;-66
2022/07/14 03:16:38;;;;;;;1.93;1.83;;;;;;;19.78;64.35;99770.44;5111965;28;20640;-66
2022/07/14 03:19:04;;;;;;;2.00;1.90;;;;;;;19.78;64.36;99762.66;5112062;28;20286;-66
2022/07/14 03:21:33;;;;;;;1.80;1.70;;;;;;;19.76;64.26;99766.28;5111868;28;20200;-66
2022/07/14 03:23:59;;;;;;;2.23;2.00;;;;;;;19.74;64.47;99766.34;5111989;28;20206;-66
2022/07/14 03:26:28;;;;;;;2.10;2.00;;;;;;;19.70;64.37;99749.28;5112214;28;20216;-66
2022/07/14 03:28:55;;;;;;;1.77;1.67;;;;;;;19.82;64.46;99760.69;5112119;28;20207;-66
2022/07/14 03:31:22;;;;;;;2.07;1.97;;;;;;;19.83;64.59;99757.16;5111881;28;20206;-66
2022/07/14 03:33:49;;;;;;;3.07;2.77;;;;;;;19.84;64.71;99764.84;5111716;28;20318;-66
2022/07/14 03:36:16;;;;;;;2.17;2.07;;;;;;;19.84;64.79;99762.25;5111917;28;20204;-66
2022/07/14 03:38:44;;;;;;;2.00;1.90;;;;;;;19.89;64.60;99768.03;5111982;28;20332;-66
2022/07/14 03:41:11;;;;;;;4.83;2.60;;;;;;;19.96;65.10;99759.84;5111922;28;20211;-66
2022/07/14 03:50:21;;;;;;;2.67;2.43;;;;;;;20.33;65.60;99760.03;5093688;28;20234;-67
2022/07/14 03:52:48;;;;;;;2.60;2.40;;;;;;;20.51;65.78;99758.00;5111712;28;20280;-66
2022/07/14 03:55:16;;;;;;;2.40;2.30;;;;;;;20.65;65.57;99754.47;5111715;28;20207;-66
2022/07/14 03:57:43;;;;;;;2.63;2.47;;;;;;;20.83;63.92;99768.91;5111735;28;20211;-67
2022/07/14 04:00:11;;;;;;;3.13;2.57;;;;;;;20.94;63.59;99767.25;5111553;28;20209;-66
2022/07/14 04:02:38;;;;;;;2.40;2.27;;;;;;;21.07;63.33;99767.25;5111709;28;20200;-66
2022/07/14 04:05:05;;;;;;;5.30;3.37;;;;;;;21.22;62.74;99761.06;5111465;28;20648;-66
2022/07/14 04:07:32;;;;;;;4.43;4.03;;;;;;;21.39;61.43;99767.72;5111575;28;20262;-67
2022/07/14 04:09:59;;;;;;;2.50;2.40;;;;;;;21.53;61.16;99774.59;5115528;28;20571;-66
2022/07/14 04:12:27;;;;;;;2.13;2.00;;;;;;;21.60;60.87;99766.25;5115223;28;20594;-66
2022/07/14 04:14:54;;;;;;;2.50;2.03;;;;;;;21.69;60.41;99768.22;5115166;28;20217;-67
2022/07/14 04:17:21;;;;;;;2.33;1.60;;;;;;;21.77;60.34;99768.53;5115006;28;20712;-67
2022/07/14 04:19:47;;;;;;;3.50;2.00;;;;;;;21.86;61.01;99773.09;5121023;27;20205;-66
2022/07/14 04:22:14;;;;;;;1.40;1.40;;;;;;;21.87;60.21;99774.72;5135429;27;20255;-67
2022/07/14 04:24:42;;;;;;;3.43;1.87;;;;;;;21.87;60.17;99774.72;5121909;27;20254;-66
2022/07/14 04:27:09;;;;;;;3.50;3.30;;;;;;;21.87;59.26;99779.97;5114863;28;20733;-65
2022/07/14 04:29:38;;;;;;;2.70;2.00;;;;;;;21.94;59.74;99777.78;5114814;27;20217;-66
2022/07/14 04:32:05;;;;;;;3.87;2.17;;;;;;;22.08;59.24;99779.41;5114701;28;20222;-66
2022/07/14 04:34:32;;;;;;;2.03;1.93;;;;;;;22.19;58.67;99776.88;5130357;27;20202;-66
2022/07/14 04:36:59;;;;;;;2.30;1.70;;;;;;;22.28;58.83;99786.66;5126667;27;20582;-67
2022/07/14 04:39:26;;;;;;;1.53;1.53;;;;;;;22.37;58.51;99779.00;5135035;27;20205;-66
2022/07/14 04:41:52;;;;;;;1.83;1.73;;;;;;;22.56;57.82;99781.09;5133580;27;20206;-66
2022/07/14 04:44:19;;;;;;;1.80;1.70;;;;;;;22.62;56.95;99793.69;5135009;27;20219;-66
2022/07/14 04:46:48;;;;;;;2.10;2.00;;;;;;;22.70;56.67;99791.41;5135199;27;20224;-67
2022/07/14 04:52:05;;;;;;;1.87;1.70;;;;;;;22.98;55.63;99791.00;5132551;27;20232;-66
2022/07/14 04:54:34;;;;;;;1.50;1.50;;;;;;;23.05;56.33;99796.63;5114642;28;20213;-66
2022/07/14 04:57:01;;;;;;;1.57;1.53;;;;;;;23.11;56.33;99796.16;5123924;27;20194;-67
2022/07/14 04:59:28;;;;;;;1.67;1.57;;;;;;;23.19;54.93;99800.81;5117057;27;20205;-66
2022/07/14 05:01:57;;;;;;;1.53;1.47;;;;;;;23.32;54.95;99805.00;5114294;28;20207;-66
2022/07/14 05:04:24;;;;;;;1.07;1.07;;;;;;;23.46;55.17;99790.88;5114306;28;20206;-67
2022/07/14 05:06:51;;;;;;;1.33;1.33;;;;;;;23.73;55.29;99799.22;5126061;27;20202;-66
2022/07/14 05:09:18;;;;;;;1.20;1.20;;;;;;;23.76;53.66;99798.97;5116667;27;20689;-67
2022/07/14 05:11:46;;;;;;;1.23;1.17;;;;;;;23.85;54.45;99797.41;5119124;27;20590;-67
2022/07/14 05:14:13;;;;;;;1.00;1.00;;;;;;;23.93;53.70;99798.50;5122558;27;20279;-66
2022/07/14 05:16:40;;;;;;;1.83;1.40;;;;;;;24.08;55.25;99808.69;5132306;27;20194;-66
2022/07/14 05:19:08;;;;;;;12.80;3.67;;;;;;;24.35;55.52;99811.78;5118839;27;20202;-66
2022/07/14 05:21:35;;;;;;;0.97;0.97;;;;;;;24.73;54.48;99812.13;5131634;27;20201;-65
2022/07/14 05:24:02;;;;;;;1.10;1.10;;;;;;;24.98;51.28;99810.94;5131924;27;20592;-67
2022/07/14 05:26:29;;;;;;;1.30;1.20;;;;;;;25.27;53.14;99821.63;5130762;27;20198;-67
2022/07/14 05:28:55;;;;;;;1.27;1.27;;;;;;;25.50;49.51;99829.28;5116356;27;20205;-67
2022/07/14 05:31:22;;;;;;;0.80;0.80;;;;;;;25.81;50.11;99831.91;5123472;27;20194;-66
2022/07/14 05:33:49;;;;;;;1.30;0.97;;;;;;;25.97;48.78;99833.09;5121520;27;20226;-67
2022/07/14 05:36:17;;;;;;;1.20;1.10;;;;;;;26.04;50.14;99818.44;5134620;27;20658;-67
2022/07/14 05:38:44;;;;;;;1.77;1.17;;;;;;;26.25;49.58;99830.69;5127543;27;20206;-67
2022/07/14 05:41:14;;;;;;;1.57;1.30;;;;;;;26.36;47.85;99822.69;5125202;27;20232;-67
2022/07/14 05:43:41;;;;;;;0.90;0.90;;;;;;;26.48;49.66;99827.69;5127818;27;20255;-64
2022/07/14 05:46:09;;;;;;;1.20;1.20;;;;;;;26.78;49.28;99825.91;5118944;27;20207;-67
2022/07/14 05:48:38;;;;;;;0.80;0.80;;;;;;;27.07;48.74;99819.69;5125397;27;20201;-67
2022/07/14 05:51:06;;;;;;;1.20;1.10;;;;;;;27.31;46.74;99827.13;5130807;27;20233;-66
2022/07/14 05:53:35;;;;;;;1.90;1.17;;;;;;;27.37;46.82;99830.97;5126994;27;20214;-65
2022/07/14 05:56:03;;;;;;;1.00;1.00;;;;;;;27.47;44.97;99834.44;5124779;27;20201;-66
2022/07/14 05:58:30;;;;;;;1.93;1.10;;;;;;;27.50;48.02;99842.06;5124727;27;20199;-66
2022/07/14 06:00:56;;;;;;;1.37;1.27;;;;;;;27.78;47.21;99840.31;5122820;27;20210;-66
2022/07/14 06:03:23;;;;;;;1.10;1.10;;;;;;;27.96;45.45;99838.56;5126692;27;20186;-66
2022/07/14 06:05:50;;;;;;;1.73;1.07;;;;;;;28.12;44.53;99844.06;5125296;27;20655;-67
2022/07/14 06:08:17;;;;;;;4.63;1.33;;;;;;;28.19;45.40;99841.66;5119194;27;20206;-66
2022/07/14 06:10:45;;;;;;;1.00;1.00;;;;;;;28.43;45.49;99841.94;5129069;27;20208;-64
2022/07/14 06:13:12;;;;;;;2.93;1.10;;;;;;;28.68;45.69;99835.97;5124433;27;20217;-64
2022/07/14 06:15:39;;;;;;;1.00;1.00;;;;;;;28.79;44.25;99843.63;5129259;27;20209;-63
2022/07/14 06:18:06;;;;;;;0.90;0.90;;;;;;;28.96;42.45;99834.03;5122049;27;20206;-64
2022/07/14 06:20:33;;;;;;;0.90;0.90;;;;;;;28.99;43.31;99836.38;5130631;27;20692;-64
2022/07/14 06:23:00;;;;;;;1.20;1.17;;;;;;;29.09;43.60;99835.31;5126171;27;20201;-64
2022/07/14 06:25:27;;;;;;;0.90;0.90;;;;;;;29.28;43.40;99833.47;5127452;27;20585;-64
2022/07/14 06:27:55;;;;;;;2.10;0.70;;;;;;;29.40;42.89;99826.97;5124302;27;20202;-64
2022/07/14 06:30:22;;;;;;;2.63;0.90;;;;;;;29.47;41.32;99825.34;5127393;27;20225;-63
2022/07/14 06:32:48;;;;;;;1.13;1.13;;;;;;;29.37;42.20;99822.81;5127811;27;20217;-63
2022/07/14 06:35:15;;;;;;;2.20;1.10;;;;;;;29.64;42.24;99820.00;5118364;27;20582;-64
2022/07/14 06:37:42;;;;;;;4.20;1.00;;;;;;;29.66;40.59;99817.22;5120700;27;20205;-64
2022/07/14 06:40:10;;;;;;;4.00;1.73;;;;;;;29.46;40.37;99813.16;5121544;27;20195;-63
2022/07/14 06:42:36;;;;;;;1.90;0.83;;;;;;;29.22;41.02;99810.31;5124777;27;20684;-64
2022/07/14 06:45:08;;;;;;;6.13;1.37;;;;;;;29.43;42.30;99818.75;5126241;27;20206;-64
2022/07/14 06:47:35;;;;;;;1.30;1.20;;;;;;;29.63;41.50;99809.56;5123039;27;20206;-65
2022/07/14 06:50:02;;;;;;;2.70;1.33;;;;;;;29.67;40.97;99808.28;5121580;27;20218;-62
2022/07/14 06:52:29;;;;;;;5.60;1.40;;;;;;;29.69;42.77;99809.78;5127995;27;20204;-64
2022/07/14 06:54:58;;;;;;;2.90;1.20;;;;;;;29.61;41.85;99807.13;5123749;28;20206;-64
2022/07/14 06:57:25;;;;;;;2.13;1.07;;;;;;;29.66;41.40;99809.28;5131304;28;20247;-62
2022/07/14 06:59:52;;;;;;;2.37;1.27;;;;;;;29.73;39.98;99794.44;5131593;28;20209;-63
2022/07/14 07:02:20;;;;;;;0.97;0.97;;;;;;;29.71;42.03;99796.41;5131119;27;20678;-63
2022/07/14 07:06:43;;;;;;;3.17;1.07;;;;;;;29.92;41.78;99806.63;5127779;28;20313;-65
2022/07/14 07:07:33;;;;;;;0.77;0.77;;;;;;;29.97;39.12;99802.50;5124762;28;20237;-64
2022/07/14 07:10:00;;;;;;;3.80;1.10;;;;;;;30.04;40.32;99806.16;5121725;28;20288;-65
2022/07/14 07:12:28;;;;;;;0.80;0.80;;;;;;;30.23;37.96;99804.22;5118053;27;20198;-64
2022/07/14 07:14:55;;;;;;;11.07;1.02;;;;;;;30.53;39.57;99798.38;5124659;27;20247;-65
2022/07/14 07:17:23;;;;;;;2.35;1.00;;;;;;;30.85;37.69;99801.03;5124403;27;20208;-65
2022/07/14 07:19:50;;;;;;;1.10;0.95;;;;;;;30.97;39.82;99798.88;5121308;28;20206;-65
2022/07/14 07:22:17;;;;;;;3.22;1.00;;;;;;;31.16;39.09;99793.25;5123041;28;20199;-65
2022/07/14 07:24:43;;;;;;;1.00;1.00;;;;;;;31.30;38.52;99799.69;5116797;27;20650;-65
2022/07/14 07:27:10;;;;;;;1.67;0.82;;;;;;;31.69;36.54;99800.59;5114379;28;20213;-64
2022/07/14 07:29:37;;;;;;;0.90;0.90;;;;;;;31.99;37.19;99796.31;5126024;28;20808;-64
2022/07/14 07:32:05;;;;;;;3.65;1.10;;;;;;;32.02;35.86;99796.78;5129064;28;20697;-64
2022/07/14 07:34:36;;;;;;;2.20;1.13;;;;;;;32.05;34.71;99801.75;5126376;28;20218;-64
2022/07/14 07:37:03;;;;;;;1.80;1.08;;;;;;;31.94;34.97;99783.56;5118524;28;20264;-64
2022/07/14 07:39:31;;;;;;;1.10;1.10;;;;;;;32.10;34.14;99794.13;5127836;27;20674;-65
2022/07/14 07:42:00;;;;;;;1.70;1.17;;;;;;;32.09;34.56;99792.47;5125771;27;20202;-64
2022/07/14 07:44:28;;;;;;;3.08;0.80;;;;;;;32.35;36.74;99786.81;5127220;27;20226;-64
2022/07/14 07:46:55;;;;;;;2.88;1.15;;;;;;;32.68;35.79;99782.13;5127144;27;20205;-64
2022/07/14 07:49:21;;;;;;;1.33;1.30;;;;;;;32.67;32.83;99780.47;5125038;27;20209;-64
2022/07/14 07:51:50;;;;;;;1.30;1.20;;;;;;;32.43;33.48;99772.69;5126884;27;20218;-65
2022/07/14 07:54:16;;;;;;;1.42;0.90;;;;;;;32.47;33.37;99771.34;5127931;27;20229;-65
2022/07/14 07:56:43;;;;;;;0.90;0.90;;;;;;;32.59;34.05;99777.91;5129233;27;20213;-64
2022/07/14 07:59:12;;;;;;;1.85;1.40;;;;;;;32.67;32.12;99772.50;5129945;27;20220;-64
2022/07/14 08:01:38;;;;;;;1.08;1.00;;;;;;;32.65;34.93;99771.88;5131871;27;20202;-65
2022/07/14 08:04:05;;;;;;;0.80;0.80;;;;;;;32.66;33.43;99771.72;5127212;27;20534;-65
2022/07/14 08:06:32;;;;;;;1.00;1.00;;;;;;;32.85;34.65;99766.91;5133383;27;20201;-65
2022/07/14 08:09:00;;;;;;;2.00;1.90;;;;;;;32.97;34.30;99766.28;5130096;27;20206;-66
2022/07/14 08:11:27;;;;;;;0.80;0.80;;;;;;;33.03;32.04;99754.91;5127506;27;20228;-65
2022/07/14 08:13:54;;;;;;;0.80;0.80;;;;;;;33.24;34.29;99768.38;5126716;27;20579;-65
2022/07/14 08:16:21;;;;;;;0.80;0.80;;;;;;;33.49;33.09;99763.59;5126879;27;20198;-65
2022/07/14 08:18:49;;;;;;;1.10;0.90;;;;;;;33.80;30.93;99762.59;5129357;27;20198;-65
2022/07/14 08:21:16;;;;;;;2.00;1.15;;;;;;;33.98;30.50;99771.81;5133876;27;20644;-65
2022/07/14 08:23:43;;;;;;;0.75;0.75;;;;;;;34.08;29.60;99769.66;5130934;27;20217;-64
2022/07/14 08:26:11;;;;;;;0.65;0.65;;;;;;;33.99;30.37;99754.81;5134442;27;20198;-65
2022/07/14 08:28:38;;;;;;;2.55;0.95;;;;;;;34.14;31.34;99766.28;5132494;27;20210;-65
2022/07/14 08:31:05;;;;;;;0.77;0.77;;;;;;;34.36;29.04;99771.59;5125218;27;20671;-65
2022/07/14 08:33:32;;;;;;;0.75;0.75;;;;;;;34.27;28.91;99762.94;5130685;27;20226;-65
2022/07/14 08:35:58;;;;;;;0.75;0.75;;;;;;;34.52;28.74;99768.69;5134506;27;20270;-65
2022/07/14 08:38:25;;;;;;;1.85;0.90;;;;;;;34.71;29.12;99762.75;5127292;27;20523;-65
2022/07/14 08:40:52;;;;;;;1.05;0.82;;;;;;;34.72;30.36;99759.91;5128958;27;20202;-64
2022/07/14 08:43:20;;;;;;;0.80;0.80;;;;;;;34.73;29.31;99758.06;5124544;27;20202;-65
2022/07/14 08:45:50;;;;;;;1.75;0.80;;;;;;;34.84;28.83;99754.84;5127762;27;20191;-64
2022/07/14 08:48:17;;;;;;;0.63;0.63;;;;;;;34.64;29.94;99761.84;5130645;27;20206;-64
2022/07/14 08:50:45;;;;;;;0.90;0.90;;;;;;;34.54;26.88;99764.00;5134754;27;20221;-65
2022/07/14 08:53:13;;;;;;;0.70;0.70;;;;;;;34.12;30.25;99757.66;5134293;27;20581;-65
2022/07/14 08:55:40;;;;;;;3.03;1.00;;;;;;;34.42;29.76;99757.53;5134332;27;20193;-64
2022/07/14 08:58:07;;;;;;;1.55;1.10;;;;;;;34.47;29.52;99749.81;5130663;27;20209;-65
2022/07/14 09:00:35;;;;;;;0.82;0.82;;;;;;;34.55;30.53;99749.66;5132835;27;20190;-65
2022/07/14 09:03:02;;;;;;;5.80;1.52;;;;;;;34.54;29.63;99748.84;5125814;27;20692;-64
2022/07/14 09:05:29;;;;;;;1.25;1.15;;;;;;;34.54;31.25;99748.84;5126192;27;20198;-64
2022/07/14 09:07:57;;;;;;;0.60;0.60;;;;;;;34.75;29.89;99753.34;5122600;27;20213;-65
2022/07/14 09:10:26;;;;;;;0.80;0.80;;;;;;;34.61;29.58;99752.41;5131334;27;20586;-66
2022/07/14 09:13:09;;;;;;;1.05;1.00;;;;;;;34.75;28.18;99732.03;5126089;27;20198;-66
2022/07/14 09:15:47;;;;;;;2.42;0.90;;;;;;;34.64;28.83;99745.88;5122559;27;20742;-66
2022/07/14 09:18:20;;;;;;;0.88;0.88;;;;;;;34.40;27.93;99748.91;5131350;27;20742;-66
2022/07/14 09:20:47;;;;;;;0.60;0.60;;;;;;;34.46;28.17;99734.84;5125170;27;20203;-65
2022/07/14 09:23:14;;;;;;;1.02;0.80;;;;;;;34.38;27.89;99741.09;5125168;27;20198;-66
2022/07/14 09:25:42;;;;;;;0.90;0.90;;;;;;;34.38;31.21;99729.66;5124615;27;20217;-66
2022/07/14 09:28:09;;;;;;;0.80;0.80;;;;;;;34.50;27.98;99730.78;5123973;27;20234;-66
2022/07/14 09:30:36;;;;;;;0.60;0.60;;;;;;;34.64;28.34;99735.22;5125751;27;20662;-65
2022/07/14 09:33:05;;;;;;;1.00;1.00;;;;;;;34.75;26.67;99732.03;5130970;27;20255;-66
2022/07/14 09:35:41;;;;;;;0.60;0.60;;;;;;;34.75;26.94;99718.72;5127832;27;20219;-66
2022/07/14 09:38:17;;;;;;;1.45;0.60;;;;;;;34.76;26.92;99723.03;5127028;27;20198;-66
2022/07/14 09:40:45;;;;;;;0.98;0.82;;;;;;;34.83;26.56;99723.91;5125927;27;20565;-65
2022/07/14 09:43:13;;;;;;;0.60;0.60;;;;;;;34.42;26.13;99698.97;5120870;27;20195;-66
2022/07/14 09:45:43;;;;;;;0.65;0.65;;;;;;;34.62;27.77;99700.81;5125179;27;20202;-66
2022/07/14 09:48:12;;;;;;;2.15;0.98;;;;;;;34.91;27.33;99707.78;5122499;27;20198;-66
2022/07/14 09:50:42;;;;;;;1.10;1.10;;;;;;;34.63;27.33;99704.28;5123904;27;20719;-67
2022/07/14 09:53:21;;;;;;;2.45;2.10;;;;;;;34.03;27.09;99705.53;5122794;27;20201;-66
2022/07/14 09:55:57;;;;;;;0.70;0.70;;;;;;;33.90;26.66;99694.75;5130331;27;20224;-66
2022/07/14 09:58:26;;;;;;;0.80;0.80;;;;;;;33.85;27.11;99705.16;5127905;27;20289;-66
2022/07/14 10:01:01;;;;;;;1.50;0.90;;;;;;;33.96;29.05;99696.66;5126339;27;20208;-66
2022/07/14 10:03:32;;;;;;;0.60;0.60;;;;;;;33.90;28.72;99699.25;5124240;27;20669;-65
2022/07/14 10:06:01;;;;;;;4.38;4.00;;;;;;;33.13;27.27;99691.75;5123983;27;20198;-69
2022/07/14 10:08:30;;;;;;;3.03;2.78;;;;;;;32.87;27.71;99691.34;5119378;27;20211;-67
2022/07/14 10:10:59;;;;;;;19.00;15.82;;;;;;;32.75;30.36;99679.50;5121143;27;20214;-69
2022/07/14 10:13:27;;;;;;;2.10;2.00;;;;;;;32.84;28.70;99685.56;5120561;27;20232;-68
2022/07/14 10:15:56;;;;;;;1.00;1.00;;;;;;;33.23;28.21;99686.97;5118910;27;20304;-69
2022/07/14 10:18:25;;;;;;;0.70;0.70;;;;;;;33.21;27.72;99686.34;5125009;27;20631;-69
2022/07/14 10:20:54;;;;;;;1.50;0.80;;;;;;;33.42;30.20;99674.13;5122944;27;20202;-67
2022/07/14 10:23:23;;;;;;;0.90;0.90;;;;;;;33.72;31.00;99675.75;5121175;27;20285;-68
2022/07/14 10:25:52;;;;;;;0.70;0.70;;;;;;;33.92;27.81;99668.81;5121289;27;20201;-68
2022/07/14 10:28:20;;;;;;;0.80;0.80;;;;;;;34.10;29.38;99668.34;5122667;27;20198;-67
2022/07/14 10:30:56;;;;;;;0.70;0.70;;;;;;;34.14;26.98;99670.47;5130845;27;20197;-67
2022/07/14 10:33:33;;;;;;;0.80;0.80;;;;;;;34.25;26.32;99677.94;5127073;27;20220;-68
2022/07/14 10:36:15;;;;;;;0.70;0.70;;;;;;;34.21;27.49;99671.38;5130874;27;20221;-68
2022/07/14 10:38:55;;;;;;;0.70;0.70;;;;;;;34.21;27.70;99670.53;5128600;27;20203;-68
2022/07/14 10:41:40;;;;;;;0.65;0.65;;;;;;;34.42;29.02;99661.69;5120278;27;20233;-68
2022/07/14 10:44:13;;;;;;;1.00;1.00;;;;;;;34.30;30.49;99661.41;5125963;27;20234;-68
2022/07/14 10:46:43;;;;;;;0.80;0.80;;;;;;;34.50;28.18;99661.56;5125551;27;20197;-68
2022/07/14 10:49:15;;;;;;;0.88;0.77;;;;;;;34.73;28.48;99662.16;5133001;27;20206;-68
2022/07/14 10:51:48;;;;;;;0.85;0.85;;;;;;;34.93;29.92;99660.44;5121253;27;20230;-68
2022/07/14 10:54:17;;;;;;;0.63;0.63;;;;;;;35.04;27.07;99662.53;5126330;27;20236;-68
2022/07/14 10:56:46;;;;;;;0.60;0.60;;;;;;;35.07;27.35;99659.50;5122690;28;20709;-70
2022/07/14 10:59:32;;;;;;;1.75;1.00;;;;;;;34.84;27.14;99658.13;5130827;27;20202;-66
2022/07/14 11:02:37;;;;;;;0.80;0.80;;;;;;;34.83;26.75;99657.31;5129284;28;20194;-67
2022/07/14 11:05:12;;;;;;;1.85;0.75;;;;;;;34.84;26.10;99650.13;5125454;28;20267;-69
2022/07/14 11:07:52;;;;;;;0.60;0.60;;;;;;;34.12;26.79;99648.53;5121540;27;20204;-69
2022/07/14 11:10:57;;;;;;;0.68;0.68;;;;;;;34.34;27.14;99643.19;5129641;28;20198;-68
2022/07/14 11:13:25;;;;;;;0.82;0.82;;;;;;;34.03;28.45;99631.03;5066181;28;20204;-68
2022/07/14 11:15:54;;;;;;;1.40;0.98;;;;;;;33.94;29.55;99626.03;5119102;27;20225;-67
2022/07/14 11:18:30;;;;;;;0.70;0.70;;;;;;;34.02;27.80;99632.06;5128521;27;20628;-68
2022/07/14 11:20:59;;;;;;;2.42;0.82;;;;;;;34.13;27.08;99623.56;5132922;27;20209;-69
2022/07/14 11:23:29;;;;;;;6.18;1.42;;;;;;;34.21;28.24;99628.78;5132881;27;20201;-69
2022/07/14 11:25:58;;;;;;;0.60;0.60;;;;;;;34.23;27.48;99626.75;5133338;27;20209;-69
2022/07/14 11:28:40;;;;;;;0.95;0.95;;;;;;;34.33;28.07;99630.91;5132608;27;20202;-69
2022/07/14 11:31:13;;;;;;;3.33;2.88;;;;;;;33.50;26.73;99592.44;5127942;27;20237;-69
2022/07/14 11:36:17;;;;;;;1.13;1.10;;;;;;;33.67;27.69;99624.94;5120607;27;20202;-68
2022/07/14 11:36:28;;;;;;;1.95;1.85;;;;;;;33.47;28.02;99623.88;5130230;27;20295;-70
2022/07/14 11:39:22;;;;;;;2.83;0.80;;;;;;;33.47;28.75;99623.88;5124314;27;20202;-67
2022/07/14 11:41:52;;;;;;;3.15;1.00;;;;;;;33.08;27.27;99619.72;5125638;27;20210;-68
2022/07/14 11:44:51;;;;;;;0.70;0.70;;;;;;;33.36;27.37;99611.06;5133802;27;20630;-68
2022/07/14 11:47:21;;;;;;;0.90;0.90;;;;;;;33.63;28.15;99613.06;5127018;27;20296;-70
2022/07/14 11:49:56;;;;;;;1.92;1.02;;;;;;;33.68;27.84;99610.63;5131935;27;20198;-68
2022/07/14 11:52:29;;;;;;;0.63;0.63;;;;;;;33.74;28.99;99599.25;5130347;27;20673;-67